Nordic Stockholm — 2DKI2 — position and weather

sailwx.info

Track history (hours):
 
Tides and Currents Weather Stations Pressure Air Temp Water Temp Dewpoint Dewpoint Depression Visibility Wind Speed Wind Dir Waves Ship Positions

Nordic Stockholm

Last reported at 2017-Jan-21 13:33 UTC. Time now 2017-Jan-22 06:05 UTC.
Position N 31°06' E 122°26'.

Length 180 m; draft 9.5 m.

Type: Cargo ship. MMSI: 235079725.

Date/timePositionNaut miles runAvg speedWind from/ knotsBaromVisibWave heightAir tempDewpointWater temp
2017-Jan-21 13:33N 31°06' E 122°26'1211.7
2017-Jan-21 12:33N 31°09' E 122°13'1010.1
2017-Jan-21 11:33N 31°14' E 122°03'1010.5
2017-Jan-21 10:33N 31°16' E 121°51'9 9.3
2017-Jan-21 09:33N 31°20' E 121°41'9 9.4
2017-Jan-21 08:33N 31°25' E 121°31'7 7.1
2017-Jan-21 07:33N 31°30' E 121°25'1110.9
2017-Jan-21 06:33N 31°37' E 121°16'1312.5
2017-Jan-21 05:33N 31°45' E 121°05'3411.3
2017-Jan-21 02:33N 32°02' E 120°30'  
2017-Jan-17 23:30N 32°02' E 120°30'3311.3
2017-Jan-17 20:34N 31°46' E 121°04'1413.6
2017-Jan-17 19:33N 31°37' E 121°17'2 1.9
2017-Jan-17 18:32N 31°36' E 121°19'0 0.2
2017-Jan-17 17:29N 31°36' E 121°19'0 0.0
2017-Jan-17 16:29N 31°36' E 121°19'0 0.0
2017-Jan-17 15:32N 31°36' E 121°19'0 0.0
2017-Jan-17 14:29N 31°36' E 121°19'0 0.0
2017-Jan-17 13:20N 31°36' E 121°19'0 0.0
2017-Jan-17 12:32N 31°36' E 121°19'1 1.4
2017-Jan-17 11:34N 31°35' E 121°19'10 9.9
2017-Jan-17 10:34N 31°28' E 121°28'10 9.4
2017-Jan-17 09:31N 31°22' E 121°37'1110.3
2017-Jan-17 08:28N 31°17' E 121°48'  
Track history (hours):
 
Tides and Currents Weather Stations Pressure Air Temp Water Temp Dewpoint Dewpoint Depression Visibility Wind Speed Wind Dir Waves Ship Positions

Nordic Stockholm

Last reported at 2017-Jan-21 13:33 UTC. Time now 2017-Jan-22 06:05 UTC.
Position N 31°06' E 122°26'.

Length 180 m; draft 9.5 m.

Type: Cargo ship. MMSI: 235079725.

Date/timePositionNaut miles runAvg speedWind from/ knotsBaromVisibWave heightAir tempDewpointWater temp
2017-Jan-21 13:33N 31°06' E 122°26'1211.7
2017-Jan-21 12:33N 31°09' E 122°13'1010.1
2017-Jan-21 11:33N 31°14' E 122°03'1010.5
2017-Jan-21 10:33N 31°16' E 121°51'9 9.3
2017-Jan-21 09:33N 31°20' E 121°41'9 9.4
2017-Jan-21 08:33N 31°25' E 121°31'7 7.1
2017-Jan-21 07:33N 31°30' E 121°25'1110.9
2017-Jan-21 06:33N 31°37' E 121°16'1312.5
2017-Jan-21 05:33N 31°45' E 121°05'3411.3
2017-Jan-21 02:33N 32°02' E 120°30'  
2017-Jan-17 23:30N 32°02' E 120°30'3311.3
2017-Jan-17 20:34N 31°46' E 121°04'1413.6
2017-Jan-17 19:33N 31°37' E 121°17'2 1.9
2017-Jan-17 18:32N 31°36' E 121°19'0 0.2
2017-Jan-17 17:29N 31°36' E 121°19'0 0.0
2017-Jan-17 16:29N 31°36' E 121°19'0 0.0
2017-Jan-17 15:32N 31°36' E 121°19'0 0.0
2017-Jan-17 14:29N 31°36' E 121°19'0 0.0
2017-Jan-17 13:20N 31°36' E 121°19'0 0.0
2017-Jan-17 12:32N 31°36' E 121°19'1 1.4
2017-Jan-17 11:34N 31°35' E 121°19'10 9.9
2017-Jan-17 10:34N 31°28' E 121°28'10 9.4
2017-Jan-17 09:31N 31°22' E 121°37'1110.3
2017-Jan-17 08:28N 31°17' E 121°48'  

Dump ship's entire track history